sensor_id;sensor_type;location;lat;lon;timestamp;temperature;humidity
20297;DHT22;10307;40.100;18.336;2022-11-21T00:01:25;13.40;99.90
20297;DHT22;10307;40.100;18.336;2022-11-21T00:03:52;13.40;99.90
20297;DHT22;10307;40.100;18.336;2022-11-21T00:06:19;13.40;99.90
20297;DHT22;10307;40.100;18.336;2022-11-21T00:08:45;13.30;99.90
20297;DHT22;10307;40.100;18.336;2022-11-21T00:11:12;13.30;99.90
20297;DHT22;10307;40.100;18.336;2022-11-21T00:13:39;13.30;99.90
20297;DHT22;10307;40.100;18.336;2022-11-21T00:16:07;13.30;99.90
20297;DHT22;10307;40.100;18.336;2022-11-21T00:18:34;13.30;99.90
20297;DHT22;10307;40.100;18.336;2022-11-21T00:21:14;13.30;99.90
20297;DHT22;10307;40.100;18.336;2022-11-21T00:23:42;13.30;99.90
20297;DHT22;10307;40.100;18.336;2022-11-21T00:26:11;13.30;99.90
20297;DHT22;10307;40.100;18.336;2022-11-21T00:28:37;13.20;99.90
20297;DHT22;10307;40.100;18.336;2022-11-21T00:31:04;13.20;99.90
20297;DHT22;10307;40.100;18.336;2022-11-21T00:33:33;13.20;99.90
20297;DHT22;10307;40.100;18.336;2022-11-21T00:36:05;13.20;99.90
20297;DHT22;10307;40.100;18.336;2022-11-21T00:38:33;13.20;99.90
20297;DHT22;10307;40.100;18.336;2022-11-21T00:40:59;13.10;99.90
20297;DHT22;10307;40.100;18.336;2022-11-21T00:43:25;13.10;99.90
20297;DHT22;10307;40.100;18.336;2022-11-21T00:45:51;13.10;99.90
20297;DHT22;10307;40.100;18.336;2022-11-21T00:48:17;13.10;99.90
20297;DHT22;10307;40.100;18.336;2022-11-21T00:50:48;13.10;99.90
20297;DHT22;10307;40.100;18.336;2022-11-21T00:53:14;13.10;99.90
20297;DHT22;10307;40.100;18.336;2022-11-21T00:55:41;13.10;99.90
20297;DHT22;10307;40.100;18.336;2022-11-21T00:58:07;13.10;99.90
20297;DHT22;10307;40.100;18.336;2022-11-21T01:00:34;13.10;99.90
20297;DHT22;10307;40.100;18.336;2022-11-21T01:03:01;13.10;99.90
20297;DHT22;10307;40.100;18.336;2022-11-21T01:05:27;13.10;99.90
20297;DHT22;10307;40.100;18.336;2022-11-21T01:07:53;13.10;99.90
20297;DHT22;10307;40.100;18.336;2022-11-21T01:10:19;13.00;99.90
20297;DHT22;10307;40.100;18.336;2022-11-21T01:12:46;13.00;99.90
20297;DHT22;10307;40.100;18.336;2022-11-21T01:15:12;13.00;99.90
20297;DHT22;10307;40.100;18.336;2022-11-21T01:17:38;13.00;99.90
20297;DHT22;10307;40.100;18.336;2022-11-21T01:20:05;13.00;99.90
20297;DHT22;10307;40.100;18.336;2022-11-21T01:22:32;13.00;99.90
20297;DHT22;10307;40.100;18.336;2022-11-21T01:24:58;13.00;99.90
20297;DHT22;10307;40.100;18.336;2022-11-21T01:27:25;13.00;99.90
20297;DHT22;10307;40.100;18.336;2022-11-21T01:29:51;13.00;99.90
20297;DHT22;10307;40.100;18.336;2022-11-21T01:32:17;12.90;99.90
20297;DHT22;10307;40.100;18.336;2022-11-21T01:34:43;12.90;99.90
20297;DHT22;10307;40.100;18.336;2022-11-21T01:37:10;12.90;99.90
20297;DHT22;10307;40.100;18.336;2022-11-21T01:39:36;12.80;99.90
20297;DHT22;10307;40.100;18.336;2022-11-21T01:42:02;12.80;99.90
20297;DHT22;10307;40.100;18.336;2022-11-21T01:44:49;12.80;99.90
20297;DHT22;10307;40.100;18.336;2022-11-21T01:47:16;12.70;99.90
20297;DHT22;10307;40.100;18.336;2022-11-21T01:49:43;12.70;99.90
20297;DHT22;10307;40.100;18.336;2022-11-21T01:52:29;12.70;99.90
20297;DHT22;10307;40.100;18.336;2022-11-21T01:55:00;12.70;99.90
20297;DHT22;10307;40.100;18.336;2022-11-21T01:57:42;12.70;99.90
20297;DHT22;10307;40.100;18.336;2022-11-21T02:02:58;12.70;99.90
20297;DHT22;10307;40.100;18.336;2022-11-21T02:05:29;12.70;99.90
20297;DHT22;10307;40.100;18.336;2022-11-21T02:08:00;12.60;99.90
20297;DHT22;10307;40.100;18.336;2022-11-21T02:10:28;12.60;99.90
20297;DHT22;10307;40.100;18.336;2022-11-21T02:12:58;12.60;99.90
20297;DHT22;10307;40.100;18.336;2022-11-21T02:15:27;12.60;99.90
20297;DHT22;10307;40.100;18.336;2022-11-21T02:17:54;12.60;99.90
20297;DHT22;10307;40.100;18.336;2022-11-21T02:20:23;12.60;99.90
20297;DHT22;10307;40.100;18.336;2022-11-21T02:25:31;12.60;99.90
20297;DHT22;10307;40.100;18.336;2022-11-21T02:28:02;12.50;99.90
20297;DHT22;10307;40.100;18.336;2022-11-21T02:30:30;12.50;99.90
20297;DHT22;10307;40.100;18.336;2022-11-21T02:32:57;12.50;99.90
20297;DHT22;10307;40.100;18.336;2022-11-21T02:35:23;12.50;99.90
20297;DHT22;10307;40.100;18.336;2022-11-21T02:38:01;12.50;99.90
20297;DHT22;10307;40.100;18.336;2022-11-21T02:40:35;12.50;99.90
20297;DHT22;10307;40.100;18.336;2022-11-21T02:43:07;12.50;99.90
20297;DHT22;10307;40.100;18.336;2022-11-21T02:45:39;12.50;99.90
20297;DHT22;10307;40.100;18.336;2022-11-21T02:48:06;12.40;99.90
20297;DHT22;10307;40.100;18.336;2022-11-21T02:50:34;12.40;99.90
20297;DHT22;10307;40.100;18.336;2022-11-21T02:53:02;12.40;99.90
20297;DHT22;10307;40.100;18.336;2022-11-21T02:55:29;12.40;99.90
20297;DHT22;10307;40.100;18.336;2022-11-21T02:57:55;12.40;99.90
20297;DHT22;10307;40.100;18.336;2022-11-21T03:00:22;12.40;99.90
20297;DHT22;10307;40.100;18.336;2022-11-21T03:02:49;12.40;99.90
20297;DHT22;10307;40.100;18.336;2022-11-21T03:05:17;12.40;99.90
20297;DHT22;10307;40.100;18.336;2022-11-21T03:07:44;12.40;99.90
20297;DHT22;10307;40.100;18.336;2022-11-21T03:10:11;12.40;99.90
20297;DHT22;10307;40.100;18.336;2022-11-21T03:12:39;12.30;99.90
20297;DHT22;10307;40.100;18.336;2022-11-21T03:15:07;12.30;99.90
20297;DHT22;10307;40.100;18.336;2022-11-21T03:17:34;12.30;99.90
20297;DHT22;10307;40.100;18.336;2022-11-21T03:20:00;12.30;99.90
20297;DHT22;10307;40.100;18.336;2022-11-21T03:22:27;12.30;99.90
20297;DHT22;10307;40.100;18.336;2022-11-21T03:24:53;12.30;99.90
20297;DHT22;10307;40.100;18.336;2022-11-21T03:27:19;12.30;99.90
20297;DHT22;10307;40.100;18.336;2022-11-21T03:29:45;12.30;99.90
20297;DHT22;10307;40.100;18.336;2022-11-21T03:32:12;12.30;99.90
20297;DHT22;10307;40.100;18.336;2022-11-21T03:34:38;12.30;99.90
20297;DHT22;10307;40.100;18.336;2022-11-21T03:37:04;12.30;99.90
20297;DHT22;10307;40.100;18.336;2022-11-21T03:39:31;12.30;99.90
20297;DHT22;10307;40.100;18.336;2022-11-21T03:41:57;12.30;99.90
20297;DHT22;10307;40.100;18.336;2022-11-21T03:44:23;12.30;99.90
20297;DHT22;10307;40.100;18.336;2022-11-21T03:46:50;12.30;99.90
20297;DHT22;10307;40.100;18.336;2022-11-21T03:49:16;12.30;99.90
20297;DHT22;10307;40.100;18.336;2022-11-21T03:51:43;12.30;99.90
20297;DHT22;10307;40.100;18.336;2022-11-21T03:54:10;12.30;99.90
20297;DHT22;10307;40.100;18.336;2022-11-21T03:56:37;12.30;99.90
20297;DHT22;10307;40.100;18.336;2022-11-21T03:59:05;12.30;99.90
20297;DHT22;10307;40.100;18.336;2022-11-21T04:01:32;12.30;99.90
20297;DHT22;10307;40.100;18.336;2022-11-21T04:03:58;12.20;99.90
20297;DHT22;10307;40.100;18.336;2022-11-21T04:06:24;12.20;99.90
20297;DHT22;10307;40.100;18.336;2022-11-21T04:08:51;12.30;99.90
20297;DHT22;10307;40.100;18.336;2022-11-21T04:11:18;12.30;99.90
20297;DHT22;10307;40.100;18.336;2022-11-21T04:13:47;12.30;99.90
20297;DHT22;10307;40.100;18.336;2022-11-21T04:16:13;12.30;99.90
20297;DHT22;10307;40.100;18.336;2022-11-21T04:18:39;12.30;99.90
20297;DHT22;10307;40.100;18.336;2022-11-21T04:21:07;12.30;99.90
20297;DHT22;10307;40.100;18.336;2022-11-21T04:23:33;12.30;99.90
20297;DHT22;10307;40.100;18.336;2022-11-21T04:26:00;12.30;99.90
20297;DHT22;10307;40.100;18.336;2022-11-21T04:28:27;12.30;99.90
20297;DHT22;10307;40.100;18.336;2022-11-21T04:30:53;12.30;99.90
20297;DHT22;10307;40.100;18.336;2022-11-21T04:33:19;12.30;99.90
20297;DHT22;10307;40.100;18.336;2022-11-21T04:35:46;12.30;99.90
20297;DHT22;10307;40.100;18.336;2022-11-21T04:38:13;12.30;99.90
20297;DHT22;10307;40.100;18.336;2022-11-21T04:40:40;12.30;99.90
20297;DHT22;10307;40.100;18.336;2022-11-21T04:43:07;12.30;99.90
20297;DHT22;10307;40.100;18.336;2022-11-21T04:45:34;12.30;99.90
20297;DHT22;10307;40.100;18.336;2022-11-21T04:48:00;12.30;99.90
20297;DHT22;10307;40.100;18.336;2022-11-21T04:50:26;12.30;99.90
20297;DHT22;10307;40.100;18.336;2022-11-21T04:52:55;12.30;99.90
20297;DHT22;10307;40.100;18.336;2022-11-21T04:55:24;12.20;99.90
20297;DHT22;10307;40.100;18.336;2022-11-21T04:57:50;12.30;99.90
20297;DHT22;10307;40.100;18.336;2022-11-21T05:00:17;12.20;99.90
20297;DHT22;10307;40.100;18.336;2022-11-21T05:02:44;12.20;99.90
20297;DHT22;10307;40.100;18.336;2022-11-21T05:05:10;12.30;99.90
20297;DHT22;10307;40.100;18.336;2022-11-21T05:07:37;12.30;99.90
20297;DHT22;10307;40.100;18.336;2022-11-21T05:10:07;12.30;99.90
20297;DHT22;10307;40.100;18.336;2022-11-21T05:12:34;12.30;99.90
20297;DHT22;10307;40.100;18.336;2022-11-21T05:15:20;12.30;99.90
20297;DHT22;10307;40.100;18.336;2022-11-21T05:17:46;12.30;99.90
20297;DHT22;10307;40.100;18.336;2022-11-21T05:20:12;12.30;99.90
20297;DHT22;10307;40.100;18.336;2022-11-21T05:22:39;12.30;99.90
20297;DHT22;10307;40.100;18.336;2022-11-21T05:25:06;12.40;99.90
20297;DHT22;10307;40.100;18.336;2022-11-21T05:27:32;12.40;99.90
20297;DHT22;10307;40.100;18.336;2022-11-21T05:29:58;12.40;99.90
20297;DHT22;10307;40.100;18.336;2022-11-21T05:32:25;12.40;99.90
20297;DHT22;10307;40.100;18.336;2022-11-21T05:34:51;12.40;99.90
20297;DHT22;10307;40.100;18.336;2022-11-21T05:37:18;12.40;99.90
20297;DHT22;10307;40.100;18.336;2022-11-21T05:39:44;12.40;99.90
20297;DHT22;10307;40.100;18.336;2022-11-21T05:42:11;12.40;99.90
20297;DHT22;10307;40.100;18.336;2022-11-21T05:44:37;12.40;99.90
20297;DHT22;10307;40.100;18.336;2022-11-21T05:47:03;12.40;99.90
20297;DHT22;10307;40.100;18.336;2022-11-21T05:49:30;12.40;99.90
20297;DHT22;10307;40.100;18.336;2022-11-21T05:51:56;12.30;99.90
20297;DHT22;10307;40.100;18.336;2022-11-21T05:54:22;12.30;99.90
20297;DHT22;10307;40.100;18.336;2022-11-21T05:56:48;12.30;99.90
20297;DHT22;10307;40.100;18.336;2022-11-21T05:59:14;12.40;99.90
20297;DHT22;10307;40.100;18.336;2022-11-21T06:01:41;12.40;99.90
20297;DHT22;10307;40.100;18.336;2022-11-21T06:04:26;12.40;99.90
20297;DHT22;10307;40.100;18.336;2022-11-21T06:06:52;12.50;99.90
20297;DHT22;10307;40.100;18.336;2022-11-21T06:09:18;12.50;99.90
20297;DHT22;10307;40.100;18.336;2022-11-21T06:11:44;12.50;99.90
20297;DHT22;10307;40.100;18.336;2022-11-21T06:14:10;12.50;99.90
20297;DHT22;10307;40.100;18.336;2022-11-21T06:16:37;12.50;99.90
20297;DHT22;10307;40.100;18.336;2022-11-21T06:19:03;12.50;99.90
20297;DHT22;10307;40.100;18.336;2022-11-21T06:21:29;12.50;99.90
20297;DHT22;10307;40.100;18.336;2022-11-21T06:23:57;12.50;99.90
20297;DHT22;10307;40.100;18.336;2022-11-21T06:26:25;12.40;99.90
20297;DHT22;10307;40.100;18.336;2022-11-21T06:28:52;12.50;99.90
20297;DHT22;10307;40.100;18.336;2022-11-21T06:31:21;12.50;99.90
20297;DHT22;10307;40.100;18.336;2022-11-21T06:33:56;12.50;99.90
20297;DHT22;10307;40.100;18.336;2022-11-21T06:36:23;12.60;99.90
20297;DHT22;10307;40.100;18.336;2022-11-21T06:38:52;12.60;99.90
20297;DHT22;10307;40.100;18.336;2022-11-21T06:41:21;12.60;99.90
20297;DHT22;10307;40.100;18.336;2022-11-21T06:43:48;12.60;99.90
20297;DHT22;10307;40.100;18.336;2022-11-21T06:46:15;12.70;99.90
20297;DHT22;10307;40.100;18.336;2022-11-21T06:48:42;12.70;99.90
20297;DHT22;10307;40.100;18.336;2022-11-21T06:51:16;12.70;99.90
20297;DHT22;10307;40.100;18.336;2022-11-21T06:53:43;12.80;99.90
20297;DHT22;10307;40.100;18.336;2022-11-21T06:56:10;12.70;99.90
20297;DHT22;10307;40.100;18.336;2022-11-21T06:58:36;12.80;99.90
20297;DHT22;10307;40.100;18.336;2022-11-21T07:01:07;12.80;99.90
20297;DHT22;10307;40.100;18.336;2022-11-21T07:03:34;12.80;99.90
20297;DHT22;10307;40.100;18.336;2022-11-21T07:06:02;12.80;99.90
20297;DHT22;10307;40.100;18.336;2022-11-21T07:08:29;12.90;99.90
20297;DHT22;10307;40.100;18.336;2022-11-21T07:11:00;12.80;99.90
20297;DHT22;10307;40.100;18.336;2022-11-21T07:13:27;12.80;99.90
20297;DHT22;10307;40.100;18.336;2022-11-21T07:16:00;12.80;99.90
20297;DHT22;10307;40.100;18.336;2022-11-21T07:18:26;12.90;99.90
20297;DHT22;10307;40.100;18.336;2022-11-21T07:20:57;13.00;99.90
20297;DHT22;10307;40.100;18.336;2022-11-21T07:23:24;13.00;99.90
20297;DHT22;10307;40.100;18.336;2022-11-21T07:25:50;13.00;99.90
20297;DHT22;10307;40.100;18.336;2022-11-21T07:28:17;13.00;99.90
20297;DHT22;10307;40.100;18.336;2022-11-21T07:30:43;13.10;99.90
20297;DHT22;10307;40.100;18.336;2022-11-21T07:33:09;13.10;99.90
20297;DHT22;10307;40.100;18.336;2022-11-21T07:35:36;13.10;99.90
20297;DHT22;10307;40.100;18.336;2022-11-21T07:38:03;13.10;99.90
20297;DHT22;10307;40.100;18.336;2022-11-21T07:40:29;13.10;99.90
20297;DHT22;10307;40.100;18.336;2022-11-21T07:43:04;13.10;99.90
20297;DHT22;10307;40.100;18.336;2022-11-21T07:45:31;13.20;99.90
20297;DHT22;10307;40.100;18.336;2022-11-21T07:47:59;13.20;99.90
20297;DHT22;10307;40.100;18.336;2022-11-21T07:50:27;13.20;99.90
20297;DHT22;10307;40.100;18.336;2022-11-21T07:53:04;13.30;99.90
20297;DHT22;10307;40.100;18.336;2022-11-21T07:55:31;13.30;99.90
20297;DHT22;10307;40.100;18.336;2022-11-21T07:57:59;13.30;99.90
20297;DHT22;10307;40.100;18.336;2022-11-21T08:00:28;13.30;99.90
20297;DHT22;10307;40.100;18.336;2022-11-21T08:02:55;13.30;99.90
20297;DHT22;10307;40.100;18.336;2022-11-21T08:05:21;13.30;99.90
20297;DHT22;10307;40.100;18.336;2022-11-21T08:07:47;13.30;99.90
20297;DHT22;10307;40.100;18.336;2022-11-21T08:10:14;13.30;99.90
20297;DHT22;10307;40.100;18.336;2022-11-21T08:12:41;13.40;99.90
20297;DHT22;10307;40.100;18.336;2022-11-21T08:15:08;13.50;99.90
20297;DHT22;10307;40.100;18.336;2022-11-21T08:17:34;13.60;99.90
20297;DHT22;10307;40.100;18.336;2022-11-21T08:20:00;13.70;99.90
20297;DHT22;10307;40.100;18.336;2022-11-21T08:22:27;13.70;99.90
20297;DHT22;10307;40.100;18.336;2022-11-21T08:24:53;13.90;99.90
20297;DHT22;10307;40.100;18.336;2022-11-21T08:27:21;13.90;99.90
20297;DHT22;10307;40.100;18.336;2022-11-21T08:29:47;14.00;99.90
20297;DHT22;10307;40.100;18.336;2022-11-21T08:32:14;14.10;99.90
20297;DHT22;10307;40.100;18.336;2022-11-21T08:34:40;14.10;99.90
20297;DHT22;10307;40.100;18.336;2022-11-21T08:37:06;14.00;99.90
20297;DHT22;10307;40.100;18.336;2022-11-21T08:39:33;14.00;99.90
20297;DHT22;10307;40.100;18.336;2022-11-21T08:41:59;14.00;99.90
20297;DHT22;10307;40.100;18.336;2022-11-21T08:44:32;14.00;99.90
20297;DHT22;10307;40.100;18.336;2022-11-21T08:46:59;14.00;99.90
20297;DHT22;10307;40.100;18.336;2022-11-21T08:49:26;14.00;99.90
20297;DHT22;10307;40.100;18.336;2022-11-21T08:51:53;14.10;99.90
20297;DHT22;10307;40.100;18.336;2022-11-21T08:54:22;14.10;99.90
20297;DHT22;10307;40.100;18.336;2022-11-21T08:56:49;14.10;99.90
20297;DHT22;10307;40.100;18.336;2022-11-21T08:59:16;14.20;99.90
20297;DHT22;10307;40.100;18.336;2022-11-21T09:01:43;14.20;99.90
20297;DHT22;10307;40.100;18.336;2022-11-21T09:04:10;14.20;99.90
20297;DHT22;10307;40.100;18.336;2022-11-21T09:06:37;14.30;99.90
20297;DHT22;10307;40.100;18.336;2022-11-21T09:09:06;14.30;99.90
20297;DHT22;10307;40.100;18.336;2022-11-21T09:11:33;14.30;99.90
20297;DHT22;10307;40.100;18.336;2022-11-21T09:14:00;14.40;99.90
20297;DHT22;10307;40.100;18.336;2022-11-21T09:16:45;14.40;99.90
20297;DHT22;10307;40.100;18.336;2022-11-21T09:19:29;14.40;99.90
20297;DHT22;10307;40.100;18.336;2022-11-21T09:21:56;14.50;99.90
20297;DHT22;10307;40.100;18.336;2022-11-21T09:24:22;14.50;99.90
20297;DHT22;10307;40.100;18.336;2022-11-21T09:26:48;14.60;99.90
20297;DHT22;10307;40.100;18.336;2022-11-21T09:29:14;14.60;99.90
20297;DHT22;10307;40.100;18.336;2022-11-21T09:31:41;14.70;99.90
20297;DHT22;10307;40.100;18.336;2022-11-21T09:34:08;14.80;99.90
20297;DHT22;10307;40.100;18.336;2022-11-21T09:36:34;14.80;99.90
20297;DHT22;10307;40.100;18.336;2022-11-21T09:39:01;14.80;99.90
20297;DHT22;10307;40.100;18.336;2022-11-21T09:47:05;15.00;99.90
20297;DHT22;10307;40.100;18.336;2022-11-21T09:49:40;15.00;99.90
20297;DHT22;10307;40.100;18.336;2022-11-21T09:52:08;15.10;99.90
20297;DHT22;10307;40.100;18.336;2022-11-21T09:54:47;15.20;99.90
20297;DHT22;10307;40.100;18.336;2022-11-21T09:57:17;15.20;99.90
20297;DHT22;10307;40.100;18.336;2022-11-21T09:59:47;15.30;99.90
20297;DHT22;10307;40.100;18.336;2022-11-21T10:02:16;15.40;99.90
20297;DHT22;10307;40.100;18.336;2022-11-21T10:04:45;15.40;99.90
20297;DHT22;10307;40.100;18.336;2022-11-21T10:07:24;15.50;99.90
20297;DHT22;10307;40.100;18.336;2022-11-21T10:12:57;15.70;99.90
20297;DHT22;10307;40.100;18.336;2022-11-21T10:24:29;16.00;99.90
20297;DHT22;10307;40.100;18.336;2022-11-21T10:27:13;16.00;99.90
20297;DHT22;10307;40.100;18.336;2022-11-21T10:29:46;16.00;99.90
20297;DHT22;10307;40.100;18.336;2022-11-21T10:35:25;16.00;99.90
20297;DHT22;10307;40.100;18.336;2022-11-21T10:37:52;16.00;99.90
20297;DHT22;10307;40.100;18.336;2022-11-21T10:40:38;15.80;99.90
20297;DHT22;10307;40.100;18.336;2022-11-21T10:46:08;15.70;99.90
20297;DHT22;10307;40.100;18.336;2022-11-21T10:48:34;15.70;99.90
20297;DHT22;10307;40.100;18.336;2022-11-21T10:53:43;15.70;99.90
20297;DHT22;10307;40.100;18.336;2022-11-21T10:56:48;15.70;99.90
20297;DHT22;10307;40.100;18.336;2022-11-21T10:59:28;15.70;99.90
20297;DHT22;10307;40.100;18.336;2022-11-21T11:01:58;15.70;99.90
20297;DHT22;10307;40.100;18.336;2022-11-21T11:04:26;15.70;99.90
20297;DHT22;10307;40.100;18.336;2022-11-21T11:06:53;15.60;99.90
20297;DHT22;10307;40.100;18.336;2022-11-21T11:09:26;15.70;99.90
20297;DHT22;10307;40.100;18.336;2022-11-21T11:14:53;15.70;99.90
20297;DHT22;10307;40.100;18.336;2022-11-21T11:17:31;15.80;99.90
20297;DHT22;10307;40.100;18.336;2022-11-21T11:22:56;15.90;99.90
20297;DHT22;10307;40.100;18.336;2022-11-21T11:25:22;15.90;99.90
20297;DHT22;10307;40.100;18.336;2022-11-21T11:27:48;15.90;99.90
20297;DHT22;10307;40.100;18.336;2022-11-21T11:30:17;15.80;99.90
20297;DHT22;10307;40.100;18.336;2022-11-21T11:32:43;15.90;99.90
20297;DHT22;10307;40.100;18.336;2022-11-21T11:37:42;15.80;99.90
20297;DHT22;10307;40.100;18.336;2022-11-21T11:40:24;15.80;99.90
20297;DHT22;10307;40.100;18.336;2022-11-21T11:43:12;15.80;99.90
20297;DHT22;10307;40.100;18.336;2022-11-21T11:46:37;15.80;99.90
20297;DHT22;10307;40.100;18.336;2022-11-21T11:52:00;15.70;99.90
20297;DHT22;10307;40.100;18.336;2022-11-21T11:54:48;15.70;99.90
20297;DHT22;10307;40.100;18.336;2022-11-21T11:57:16;15.70;99.90
20297;DHT22;10307;40.100;18.336;2022-11-21T11:59:48;15.70;99.90
20297;DHT22;10307;40.100;18.336;2022-11-21T12:02:27;15.70;99.90
20297;DHT22;10307;40.100;18.336;2022-11-21T12:05:02;15.70;99.90
20297;DHT22;10307;40.100;18.336;2022-11-21T12:07:43;15.70;99.90
20297;DHT22;10307;40.100;18.336;2022-11-21T12:10:19;15.70;99.90
20297;DHT22;10307;40.100;18.336;2022-11-21T12:12:55;15.70;99.90
20297;DHT22;10307;40.100;18.336;2022-11-21T12:15:35;15.70;99.90
20297;DHT22;10307;40.100;18.336;2022-11-21T12:21:13;15.70;99.90
20297;DHT22;10307;40.100;18.336;2022-11-21T12:23:47;15.70;99.90
20297;DHT22;10307;40.100;18.336;2022-11-21T12:26:30;15.70;99.90
20297;DHT22;10307;40.100;18.336;2022-11-21T12:29:42;15.70;99.90
20297;DHT22;10307;40.100;18.336;2022-11-21T12:32:43;15.70;99.90
20297;DHT22;10307;40.100;18.336;2022-11-21T12:35:22;15.70;99.90
20297;DHT22;10307;40.100;18.336;2022-11-21T12:38:37;15.70;99.90
20297;DHT22;10307;40.100;18.336;2022-11-21T12:41:35;15.70;99.90
20297;DHT22;10307;40.100;18.336;2022-11-21T12:44:40;15.70;99.90
20297;DHT22;10307;40.100;18.336;2022-11-21T12:54:03;15.70;99.90
20297;DHT22;10307;40.100;18.336;2022-11-21T13:05:17;15.70;99.90
20297;DHT22;10307;40.100;18.336;2022-11-21T13:07:46;15.70;99.90
20297;DHT22;10307;40.100;18.336;2022-11-21T13:10:14;15.70;99.90
20297;DHT22;10307;40.100;18.336;2022-11-21T13:12:48;15.70;99.90
20297;DHT22;10307;40.100;18.336;2022-11-21T13:15:28;15.70;99.90
20297;DHT22;10307;40.100;18.336;2022-11-21T13:18:02;15.70;99.90
20297;DHT22;10307;40.100;18.336;2022-11-21T13:20:39;15.70;99.90
20297;DHT22;10307;40.100;18.336;2022-11-21T13:23:37;15.70;99.90
20297;DHT22;10307;40.100;18.336;2022-11-21T13:29:05;15.70;99.90
20297;DHT22;10307;40.100;18.336;2022-11-21T13:31:33;15.70;99.90
20297;DHT22;10307;40.100;18.336;2022-11-21T13:34:01;15.70;99.90
20297;DHT22;10307;40.100;18.336;2022-11-21T13:47:00;15.70;99.90
20297;DHT22;10307;40.100;18.336;2022-11-21T14:01:25;15.60;99.90
20297;DHT22;10307;40.100;18.336;2022-11-21T14:04:22;15.60;99.90
20297;DHT22;10307;40.100;18.336;2022-11-21T14:06:51;15.60;99.90
20297;DHT22;10307;40.100;18.336;2022-11-21T14:09:26;15.50;99.90
20297;DHT22;10307;40.100;18.336;2022-11-21T14:12:02;15.60;99.90
20297;DHT22;10307;40.100;18.336;2022-11-21T14:17:13;15.50;99.90
20297;DHT22;10307;40.100;18.336;2022-11-21T14:19:43;15.50;99.90
20297;DHT22;10307;40.100;18.336;2022-11-21T14:22:27;15.50;99.90
20297;DHT22;10307;40.100;18.336;2022-11-21T14:24:57;15.50;99.90
20297;DHT22;10307;40.100;18.336;2022-11-21T14:27:30;15.40;99.90
20297;DHT22;10307;40.100;18.336;2022-11-21T14:29:57;15.40;99.90
20297;DHT22;10307;40.100;18.336;2022-11-21T14:32:27;15.30;99.90
20297;DHT22;10307;40.100;18.336;2022-11-21T14:35:08;15.30;99.90
20297;DHT22;10307;40.100;18.336;2022-11-21T14:37:37;15.30;99.90
20297;DHT22;10307;40.100;18.336;2022-11-21T14:40:05;15.20;99.90
20297;DHT22;10307;40.100;18.336;2022-11-21T14:42:35;15.20;99.90
20297;DHT22;10307;40.100;18.336;2022-11-21T14:45:27;15.10;99.90
20297;DHT22;10307;40.100;18.336;2022-11-21T14:47:53;15.10;99.90
20297;DHT22;10307;40.100;18.336;2022-11-21T14:50:33;15.10;99.90
20297;DHT22;10307;40.100;18.336;2022-11-21T14:53:00;15.10;99.90
20297;DHT22;10307;40.100;18.336;2022-11-21T14:55:28;15.10;99.90
20297;DHT22;10307;40.100;18.336;2022-11-21T14:57:57;15.00;99.90
20297;DHT22;10307;40.100;18.336;2022-11-21T15:00:26;15.00;99.90
20297;DHT22;10307;40.100;18.336;2022-11-21T15:02:57;14.90;99.90
20297;DHT22;10307;40.100;18.336;2022-11-21T15:05:32;14.90;99.90
20297;DHT22;10307;40.100;18.336;2022-11-21T15:07:59;14.80;99.90
20297;DHT22;10307;40.100;18.336;2022-11-21T15:10:34;14.80;99.90
20297;DHT22;10307;40.100;18.336;2022-11-21T15:13:12;14.80;99.90
20297;DHT22;10307;40.100;18.336;2022-11-21T15:15:47;14.70;99.90
20297;DHT22;10307;40.100;18.336;2022-11-21T15:18:25;14.70;99.90
20297;DHT22;10307;40.100;18.336;2022-11-21T15:20:54;14.60;99.90
20297;DHT22;10307;40.100;18.336;2022-11-21T15:23:30;14.60;99.90
20297;DHT22;10307;40.100;18.336;2022-11-21T15:25:58;14.60;99.90
20297;DHT22;10307;40.100;18.336;2022-11-21T15:28:24;14.50;99.90
20297;DHT22;10307;40.100;18.336;2022-11-21T15:31:13;14.50;99.90
20297;DHT22;10307;40.100;18.336;2022-11-21T15:33:59;14.50;99.90
20297;DHT22;10307;40.100;18.336;2022-11-21T15:36:27;14.50;99.90
20297;DHT22;10307;40.100;18.336;2022-11-21T15:38:56;14.40;99.90
20297;DHT22;10307;40.100;18.336;2022-11-21T15:41:31;14.40;99.90
20297;DHT22;10307;40.100;18.336;2022-11-21T15:46:32;14.30;99.90
20297;DHT22;10307;40.100;18.336;2022-11-21T15:49:04;14.20;99.90
20297;DHT22;10307;40.100;18.336;2022-11-21T15:51:42;14.20;99.90
20297;DHT22;10307;40.100;18.336;2022-11-21T15:54:19;14.20;99.90
20297;DHT22;10307;40.100;18.336;2022-11-21T15:56:46;14.20;99.90
20297;DHT22;10307;40.100;18.336;2022-11-21T15:59:13;14.20;99.90
20297;DHT22;10307;40.100;18.336;2022-11-21T16:01:40;14.10;99.90
20297;DHT22;10307;40.100;18.336;2022-11-21T16:04:09;14.10;99.90
20297;DHT22;10307;40.100;18.336;2022-11-21T16:06:36;14.10;99.90
20297;DHT22;10307;40.100;18.336;2022-11-21T16:09:03;14.10;99.90
20297;DHT22;10307;40.100;18.336;2022-11-21T16:11:34;14.00;99.90
20297;DHT22;10307;40.100;18.336;2022-11-21T16:14:11;14.00;99.90
20297;DHT22;10307;40.100;18.336;2022-11-21T16:16:40;14.00;99.90
20297;DHT22;10307;40.100;18.336;2022-11-21T16:19:12;14.00;99.90
20297;DHT22;10307;40.100;18.336;2022-11-21T16:21:39;13.90;99.90
20297;DHT22;10307;40.100;18.336;2022-11-21T16:24:06;13.90;99.90
20297;DHT22;10307;40.100;18.336;2022-11-21T16:26:32;13.90;99.90
20297;DHT22;10307;40.100;18.336;2022-11-21T16:28:59;13.90;99.90
20297;DHT22;10307;40.100;18.336;2022-11-21T16:31:28;13.90;99.90
20297;DHT22;10307;40.100;18.336;2022-11-21T16:33:55;13.80;99.90
20297;DHT22;10307;40.100;18.336;2022-11-21T16:36:28;13.80;99.90
20297;DHT22;10307;40.100;18.336;2022-11-21T16:38:54;13.70;99.90
20297;DHT22;10307;40.100;18.336;2022-11-21T16:41:22;13.70;99.90
20297;DHT22;10307;40.100;18.336;2022-11-21T16:43:51;13.70;99.90
20297;DHT22;10307;40.100;18.336;2022-11-21T16:46:19;13.70;99.90
20297;DHT22;10307;40.100;18.336;2022-11-21T16:48:47;13.60;99.90
20297;DHT22;10307;40.100;18.336;2022-11-21T16:51:18;13.60;99.90
20297;DHT22;10307;40.100;18.336;2022-11-21T16:53:46;13.50;99.90
20297;DHT22;10307;40.100;18.336;2022-11-21T16:56:13;13.50;99.90
20297;DHT22;10307;40.100;18.336;2022-11-21T16:58:41;13.50;99.90
20297;DHT22;10307;40.100;18.336;2022-11-21T17:01:21;13.40;99.90
20297;DHT22;10307;40.100;18.336;2022-11-21T17:03:48;13.40;99.90
20297;DHT22;10307;40.100;18.336;2022-11-21T17:06:23;13.40;99.90